Thursday, January 18, 2018, 11:02 PM EST
Back to Local

KTTN, Trenton Mercer County Airport

Location: Trenton, NJ, United States Lat: 40.283
Local Time: 11:02 PM EST ( 4:02 GMT) Lon: -74.817
Time Zone: US/Eastern Elev: 213 ft

Show me the last for .
Show Coded

Time T Td Feel RH Dir Speed Gust Alt SLP Vis Weather Sky Remarks
2018-01-18 21:53 24 11 - 56 - Calm - 30.09 30.08 9 CLR None
2018-01-18 20:53 26 11 - 52 - Calm - 30.08 30.07 9 CLR None
2018-01-18 19:53 27 11 22 50 260° 5 - 30.06 30.05 10 CLR None
2018-01-18 18:53 28 11 22 48 290° 6 - 30.05 30.04 10 CLR 6-hr Min Temp (7pm): 28.0°F
6-hr Max Temp (7pm): 32.0°F
2018-01-18 17:53 29 10 23 44 290° 6 - 30.02 30.01 10 CLR None
2018-01-18 16:53 30 10 22 42 300° 8 - 29.98 29.97 10 CLR None
2018-01-18 15:53 31 10 23 41 300° 9 - 29.97 29.96 10 CLR None
2018-01-18 14:53 31 10 23 41 300° 9 - 29.96 29.96 10 CLR None
2018-01-18 13:53 31 9 22 39 290° 12 - 29.96 29.96 10 CLR None
2018-01-18 12:53 29 9 16 42 310° 13 20 29.99 29.98 10 CLR 6-hr Min Temp (1pm): 15.1°F
6-hr Max Temp (1pm): 28.9°F
2018-01-18 11:53 28 9 15 43 320° 13 20 30.04 30.03 10 CLR None
2018-01-18 10:53 26 8 12 45 330° 14 21 30.07 30.06 10 CLR None
2018-01-18 09:53 24 7 14 47 310° 9 - 30.10 30.09 10 CLR None
2018-01-18 08:53 19 7 10 58 300° 7 - 30.08 30.07 9 CLR None
2018-01-18 07:53 16 7 4 66 310° 9 - 30.07 30.06 8 CLR Pressure falling rapidly
2018-01-18 06:53 16 7 9 66 230° 5 - 30.12 30.11 9 CLR 24-hr Precip Total (7am): 0.04"
6-hr Min Temp (7am): 15.1°F
6-hr Max Temp (7am): 18.0°F
2018-01-18 05:53 18 7 10 61 270° 6 - 30.09 30.08 10 CLR Pressure rising rapidly
2018-01-18 04:53 16 7 5 66 340° 8 - 30.03 30.02 10 CLR Pressure falling rapidly
2018-01-18 03:53 17 7 7 63 320° 8 - 30.09 30.08 10 CLR None
2018-01-18 02:53 17 8 8 67 310° 7 - 30.14 30.13 9 CLR None
2018-01-18 01:53 17 8 9 67 280° 6 - 30.16 30.15 8 CLR None
2018-01-18 00:53 18 9 10 67 290° 6 - 30.18 30.17 8 CLR 6-hr Min Temp (1am): 18.0°F
6-hr Max Temp (1am): 24.1°F
2018-01-17 23:53 19 9 - 64 - Calm - 30.20 30.19 9 CLR 24-hr Min Temp (12am): 19.0°F
24-hr Max Temp (12am): 35.1°F

Support USWX by starting your Amazon purchase here.